createdAt,value
2023-03-24T00:01:28.278Z,99052.94
2023-03-24T00:03:56.884Z,99042.25
2023-03-24T00:06:26.743Z,99047.47
2023-03-24T00:08:55.058Z,99041.72
2023-03-24T00:11:23.167Z,99039.88
2023-03-24T00:13:51.483Z,99034.94
2023-03-24T00:16:22.233Z,99044.97
2023-03-24T00:18:54.365Z,99047.34
2023-03-24T00:21:25.144Z,99049.00
2023-03-24T00:23:56.091Z,99035.44
2023-03-24T00:26:25.518Z,99032.00
2023-03-24T00:28:55.571Z,99037.88
2023-03-24T00:31:25.018Z,99034.53
2023-03-24T00:33:53.948Z,99040.94
2023-03-24T00:36:23.293Z,99033.47
2023-03-24T00:38:51.598Z,99016.63
2023-03-24T00:41:21.816Z,99013.75
2023-03-24T00:43:50.898Z,99012.81
2023-03-24T00:46:29.967Z,99008.97
2023-03-24T00:49:02.777Z,98998.88
2023-03-24T00:51:32.525Z,98999.25
2023-03-24T00:54:02.098Z,98989.31
2023-03-24T00:56:34.711Z,98980.47
2023-03-24T00:59:03.564Z,98987.84
2023-03-24T01:01:35.863Z,98990.28
2023-03-24T01:04:06.326Z,98977.66
2023-03-24T01:06:36.571Z,98979.41
2023-03-24T01:09:06.154Z,98963.94
2023-03-24T01:11:42.383Z,98953.31
2023-03-24T01:14:11.871Z,98953.16
2023-03-24T01:16:40.714Z,98938.34
2023-03-24T01:19:09.888Z,98945.41
2023-03-24T01:21:38.724Z,98937.72
2023-03-24T01:24:08.023Z,98945.91
2023-03-24T01:26:40.082Z,98939.69
2023-03-24T01:29:08.981Z,98946.28
2023-03-24T01:31:37.142Z,98949.41
2023-03-24T01:34:05.327Z,98948.56
2023-03-24T01:36:33.904Z,98947.09
2023-03-24T01:39:02.708Z,98935.03
2023-03-24T01:41:33.914Z,98951.41
2023-03-24T01:44:18.965Z,98934.63
2023-03-24T01:46:48.534Z,98938.44
2023-03-24T01:49:17.082Z,98928.56
2023-03-24T01:51:46.380Z,98924.50
2023-03-24T01:54:18.083Z,98919.28
2023-03-24T01:56:48.861Z,98914.94
2023-03-24T01:59:19.676Z,98907.59
2023-03-24T02:04:48.639Z,98919.84
2023-03-24T02:07:19.820Z,98918.38
2023-03-24T02:09:48.642Z,98907.03
2023-03-24T02:12:16.962Z,98896.84
2023-03-24T02:14:45.261Z,98900.75
2023-03-24T02:17:33.458Z,98896.47
2023-03-24T02:20:18.707Z,98881.69
2023-03-24T02:23:02.043Z,98875.75
2023-03-24T02:25:51.519Z,98868.38
2023-03-24T02:28:26.373Z,98859.59
2023-03-24T02:31:04.650Z,98856.50
2023-03-24T02:33:51.307Z,98848.38
2023-03-24T02:36:37.781Z,98837.19
2023-03-24T02:39:27.060Z,98823.03
2023-03-24T02:42:02.083Z,98816.94
2023-03-24T02:44:33.455Z,98805.41
2023-03-24T02:47:04.584Z,98809.00
2023-03-24T02:49:37.692Z,98806.72
2023-03-24T02:52:08.100Z,98806.19
2023-03-24T02:54:43.152Z,98808.41
2023-03-24T02:57:16.386Z,98832.00
2023-03-24T03:00:07.515Z,98833.78
2023-03-24T03:03:00.663Z,98838.72
2023-03-24T03:05:31.694Z,98840.88
2023-03-24T03:08:02.002Z,98832.63
2023-03-24T03:10:32.393Z,98825.66
2023-03-24T03:13:06.004Z,98827.97
2023-03-24T03:15:36.774Z,98833.84
2023-03-24T03:18:08.462Z,98833.25
2023-03-24T03:20:39.888Z,98829.06
2023-03-24T03:23:10.692Z,98828.28
2023-03-24T03:25:42.353Z,98807.09
2023-03-24T03:28:13.297Z,98811.63
2023-03-24T03:30:43.219Z,98812.31
2023-03-24T03:33:13.967Z,98807.13
2023-03-24T03:35:44.928Z,98811.13
2023-03-24T03:38:16.346Z,98809.50
2023-03-24T03:40:51.289Z,98822.69
2023-03-24T03:43:24.347Z,98811.31
2023-03-24T03:45:52.736Z,98806.31
2023-03-24T03:48:26.606Z,98804.66
2023-03-24T03:51:06.306Z,98814.44
2023-03-24T03:53:48.662Z,98821.66
2023-03-24T03:56:18.518Z,98830.50
2023-03-24T03:58:59.599Z,98830.84
2023-03-24T04:01:29.459Z,98824.78
2023-03-24T04:04:33.352Z,98820.53
2023-03-24T04:07:24.476Z,98827.25
2023-03-24T04:10:12.381Z,98843.25
2023-03-24T04:12:48.176Z,98822.47
2023-03-24T04:15:40.702Z,98838.47
2023-03-24T04:18:41.553Z,98815.25
2023-03-24T04:21:23.419Z,98840.81
2023-03-24T04:23:56.737Z,98853.28
2023-03-24T04:26:28.536Z,98846.56
2023-03-24T04:29:06.189Z,98849.75
2023-03-24T04:31:37.486Z,98856.50
2023-03-24T04:34:09.620Z,98854.31
2023-03-24T04:36:50.508Z,98848.69
2023-03-24T04:39:28.324Z,98855.59
2023-03-24T04:42:00.937Z,98851.94
2023-03-24T04:44:33.135Z,98858.06
2023-03-24T04:47:25.693Z,98848.22
2023-03-24T04:50:11.591Z,98858.97
2023-03-24T04:52:40.939Z,98854.50
2023-03-24T04:55:22.834Z,98861.69
2023-03-24T04:57:52.304Z,98849.75
2023-03-24T05:00:21.687Z,98845.66
2023-03-24T05:02:52.454Z,98830.91
2023-03-24T05:05:26.411Z,98824.91
2023-03-24T05:07:55.192Z,98824.22
2023-03-24T05:10:23.862Z,98811.06
2023-03-24T05:12:56.332Z,98804.25
2023-03-24T05:15:26.802Z,98776.97
2023-03-24T05:18:05.420Z,98785.06
2023-03-24T05:20:33.861Z,98782.50
2023-03-24T05:23:11.484Z,98778.13
2023-03-24T05:25:41.095Z,98757.56
2023-03-24T05:28:11.481Z,98756.50
2023-03-24T05:30:39.496Z,98756.38
2023-03-24T05:33:25.663Z,98773.06
2023-03-24T05:35:53.704Z,98798.28
2023-03-24T05:38:21.802Z,98806.09
2023-03-24T05:40:57.092Z,98800.75
2023-03-24T05:43:28.325Z,98816.38
2023-03-24T05:46:05.492Z,98816.66
2023-03-24T05:48:36.861Z,98814.06
2023-03-24T05:51:13.517Z,98832.69
2023-03-24T05:53:42.295Z,98841.03
2023-03-24T05:56:21.482Z,98840.09
2023-03-24T05:59:15.788Z,98842.84
2023-03-24T06:02:07.440Z,98844.06
2023-03-24T06:05:08.477Z,98859.41
2023-03-24T06:07:36.558Z,98874.75
2023-03-24T06:10:07.904Z,98884.63
2023-03-24T06:12:43.840Z,98892.28
2023-03-24T06:15:12.272Z,98903.53
2023-03-24T06:17:43.509Z,98903.50
2023-03-24T06:20:24.350Z,98897.88
2023-03-24T06:23:16.944Z,98900.56
2023-03-24T06:25:56.528Z,98891.53
2023-03-24T06:28:26.375Z,98887.69
2023-03-24T06:30:59.059Z,98895.44
2023-03-24T06:33:34.564Z,98891.97
2023-03-24T06:36:06.872Z,98879.16
2023-03-24T06:38:35.935Z,98885.06
2023-03-24T06:41:06.186Z,98894.25
2023-03-24T06:43:34.308Z,98874.03
2023-03-24T06:46:02.226Z,98880.81
2023-03-24T06:48:31.305Z,98887.91
2023-03-24T06:51:05.455Z,98897.22
2023-03-24T06:53:33.312Z,98901.09
2023-03-24T06:56:01.927Z,98903.72
2023-03-24T06:58:36.823Z,98896.00
2023-03-24T07:01:17.007Z,98889.94
2023-03-24T07:03:54.973Z,98885.03
2023-03-24T07:06:43.263Z,98892.94
2023-03-24T07:09:20.684Z,98900.22
2023-03-24T07:11:49.704Z,98897.69
2023-03-24T07:14:18.333Z,98896.34
2023-03-24T07:16:47.455Z,98898.06
2023-03-24T07:19:43.945Z,98910.75
2023-03-24T07:22:33.309Z,98913.16
2023-03-24T07:25:21.555Z,98917.13
2023-03-24T07:27:57.461Z,98911.50
2023-03-24T07:30:37.411Z,98923.72
2023-03-24T07:33:10.164Z,98923.91
2023-03-24T07:35:39.705Z,98916.72
2023-03-24T07:38:10.569Z,98908.53
2023-03-24T07:40:39.203Z,98897.56
2023-03-24T07:43:07.369Z,98903.34
2023-03-24T07:45:54.301Z,98891.69
2023-03-24T07:48:23.120Z,98883.81
2023-03-24T07:50:53.601Z,98862.63
2023-03-24T07:53:47.926Z,98871.84
2023-03-24T07:56:25.212Z,98873.63
2023-03-24T07:58:57.060Z,98883.53
2023-03-24T08:01:32.208Z,98881.22
2023-03-24T08:04:06.071Z,98885.78
2023-03-24T08:06:54.788Z,98878.56
2023-03-24T08:09:25.217Z,98888.81
2023-03-24T08:11:54.213Z,98865.38
2023-03-24T08:14:23.723Z,98877.38
2023-03-24T08:16:54.902Z,98883.91
2023-03-24T08:19:22.965Z,98888.28
2023-03-24T08:21:51.076Z,98896.31
2023-03-24T08:24:20.018Z,98898.84
2023-03-24T08:26:52.952Z,98899.28
2023-03-24T08:29:21.186Z,98912.38
2023-03-24T08:31:49.168Z,98918.81
2023-03-24T08:34:17.080Z,98918.63
2023-03-24T08:36:45.375Z,98920.41
2023-03-24T08:39:13.538Z,98914.50
2023-03-24T08:41:41.988Z,98917.47
2023-03-24T08:44:12.373Z,98921.47
2023-03-24T08:46:42.212Z,98910.56
2023-03-24T08:49:10.715Z,98921.28
2023-03-24T08:51:38.708Z,98917.34
2023-03-24T08:54:09.614Z,98918.81
2023-03-24T08:56:39.159Z,98912.75
2023-03-24T08:59:07.836Z,98904.38
2023-03-24T09:01:37.509Z,98892.16
2023-03-24T09:04:05.963Z,98886.53
2023-03-24T09:06:34.538Z,98895.59
2023-03-24T09:09:02.574Z,98904.31
2023-03-24T09:11:30.653Z,98905.22
2023-03-24T09:13:58.630Z,98907.97
2023-03-24T09:16:27.368Z,98890.91
2023-03-24T09:18:58.828Z,98896.53
2023-03-24T09:21:27.216Z,98908.56
2023-03-24T09:23:55.018Z,98912.16
2023-03-24T09:26:23.244Z,98896.97
2023-03-24T09:28:51.316Z,98903.38
2023-03-24T09:31:19.448Z,98912.22
2023-03-24T09:33:47.510Z,98912.81
2023-03-24T09:36:17.172Z,98922.09
2023-03-24T09:38:45.336Z,98921.91
2023-03-24T09:41:17.448Z,98910.78
2023-03-24T09:43:48.625Z,98912.06
2023-03-24T09:46:19.385Z,98910.53
2023-03-24T09:48:50.932Z,98907.72
2023-03-24T09:51:23.604Z,98909.38
2023-03-24T09:53:54.801Z,98910.22
2023-03-24T09:56:24.004Z,98907.22
2023-03-24T09:58:55.956Z,98919.53
2023-03-24T10:01:24.553Z,98922.53
2023-03-24T10:03:53.144Z,98917.56
2023-03-24T10:06:26.628Z,98924.94
2023-03-24T10:08:59.870Z,98920.81
2023-03-24T10:11:32.421Z,98927.44
2023-03-24T10:14:08.662Z,98937.44
2023-03-24T10:16:42.761Z,98947.38
2023-03-24T10:19:20.042Z,98956.38
2023-03-24T10:21:56.754Z,98975.63
2023-03-24T10:24:27.745Z,98976.41
2023-03-24T10:27:00.746Z,98979.75
2023-03-24T10:29:31.242Z,98986.94
2023-03-24T10:32:01.634Z,98976.13
2023-03-24T10:34:31.618Z,98997.59
2023-03-24T10:37:01.991Z,98997.00
2023-03-24T10:39:41.936Z,99006.22
2023-03-24T10:42:17.085Z,99011.97
2023-03-24T10:44:45.881Z,99016.94
2023-03-24T10:47:15.501Z,99017.75
2023-03-24T10:49:56.143Z,99020.75
2023-03-24T10:52:28.525Z,99022.22
2023-03-24T10:54:57.839Z,99027.97
2023-03-24T10:57:27.356Z,99044.31
2023-03-24T10:59:56.964Z,99047.88
2023-03-24T11:02:26.535Z,99039.13
2023-03-24T11:04:57.415Z,99043.00
2023-03-24T11:07:31.205Z,99047.69
2023-03-24T11:10:06.853Z,99058.94
2023-03-24T11:12:36.105Z,99068.72
2023-03-24T11:15:21.007Z,99073.19
2023-03-24T11:17:55.129Z,99086.03
2023-03-24T11:20:28.204Z,99084.13
2023-03-24T11:23:00.598Z,99066.06
2023-03-24T11:25:32.494Z,99083.06
2023-03-24T11:28:03.021Z,99077.25
2023-03-24T11:30:34.189Z,99078.50
2023-03-24T11:33:04.234Z,99058.19
2023-03-24T11:35:41.700Z,99080.09
2023-03-24T11:38:17.266Z,99080.38
2023-03-24T11:40:54.527Z,99082.56
2023-03-24T11:43:23.005Z,99069.81
2023-03-24T11:45:55.216Z,99067.56
2023-03-24T11:48:26.744Z,99073.84
2023-03-24T11:50:56.645Z,99091.56
2023-03-24T11:53:28.499Z,99088.00
2023-03-24T11:56:02.373Z,99091.22
2023-03-24T11:58:36.278Z,99093.28
2023-03-24T12:01:07.959Z,99082.97
2023-03-24T12:03:48.103Z,99086.94
2023-03-24T12:06:23.580Z,99096.47
2023-03-24T12:08:59.414Z,99091.09
2023-03-24T12:11:34.917Z,99092.47
2023-03-24T12:14:06.108Z,99103.38
2023-03-24T12:16:41.249Z,99110.59
2023-03-24T12:19:29.566Z,99108.16
2023-03-24T12:22:01.420Z,99098.34
2023-03-24T12:24:39.488Z,99098.72
2023-03-24T12:27:13.889Z,99105.78
2023-03-24T12:29:54.086Z,99113.75
2023-03-24T12:32:37.519Z,99101.81
2023-03-24T12:35:20.447Z,99101.81
2023-03-24T12:37:52.901Z,99106.38
2023-03-24T12:40:47.543Z,99119.47
2023-03-24T12:43:23.205Z,99118.81
2023-03-24T12:45:54.029Z,99120.84
2023-03-24T12:48:51.592Z,99113.91
2023-03-24T12:51:25.027Z,99113.81
2023-03-24T12:54:10.734Z,99120.34
2023-03-24T12:56:45.244Z,99115.53
2023-03-24T12:59:16.949Z,99115.53
2023-03-24T13:01:50.462Z,99108.03
2023-03-24T13:04:21.494Z,99106.41
2023-03-24T13:06:53.320Z,99112.94
2023-03-24T13:09:29.832Z,99112.69
2023-03-24T13:12:01.987Z,99116.28
2023-03-24T13:14:32.628Z,99114.88
2023-03-24T13:17:09.313Z,99109.91
2023-03-24T13:19:38.120Z,99107.09
2023-03-24T13:22:07.798Z,99099.28
2023-03-24T13:24:35.883Z,99090.84
2023-03-24T13:27:10.775Z,99091.56
2023-03-24T13:29:51.142Z,99090.91
2023-03-24T13:32:26.866Z,99092.28
2023-03-24T13:34:57.925Z,99097.59
2023-03-24T13:37:27.756Z,99077.47
2023-03-24T13:39:57.913Z,99082.75
2023-03-24T13:42:31.329Z,99099.75
2023-03-24T13:45:00.619Z,99087.44
2023-03-24T13:47:31.721Z,99082.25
2023-03-24T13:50:01.922Z,99079.47
2023-03-24T13:52:32.795Z,99072.31
2023-03-24T13:55:05.383Z,99077.09
2023-03-24T13:57:34.867Z,99064.63
2023-03-24T14:00:11.723Z,99081.16
2023-03-24T14:02:46.968Z,99077.84
2023-03-24T14:05:29.896Z,99085.91
2023-03-24T14:08:11.607Z,99089.16
2023-03-24T14:10:41.571Z,99084.78
2023-03-24T14:13:37.266Z,99075.78
2023-03-24T14:16:23.507Z,99086.22
2023-03-24T14:18:51.509Z,99074.78
2023-03-24T14:21:29.894Z,99068.81
2023-03-24T14:23:59.667Z,99070.53
2023-03-24T14:26:31.722Z,99054.38
2023-03-24T14:29:01.408Z,99059.03
2023-03-24T14:31:30.345Z,99055.94
2023-03-24T14:34:03.758Z,99062.19
2023-03-24T14:36:35.384Z,99051.75
2023-03-24T14:39:21.579Z,99062.91
2023-03-24T14:41:51.941Z,99071.00
2023-03-24T14:44:34.578Z,99064.59
2023-03-24T14:47:04.599Z,99070.34
2023-03-24T14:49:34.029Z,99066.56
2023-03-24T14:52:04.829Z,99064.19
2023-03-24T14:54:36.374Z,99069.91
2023-03-24T14:57:05.019Z,99059.69
2023-03-24T14:59:39.109Z,99048.75
2023-03-24T15:02:15.016Z,99051.03
2023-03-24T15:04:45.102Z,99042.31
2023-03-24T15:07:15.087Z,99044.75
2023-03-24T15:09:49.358Z,99048.34
2023-03-24T15:12:17.501Z,99044.66
2023-03-24T15:14:45.668Z,99031.63
2023-03-24T15:17:22.161Z,99039.88
2023-03-24T15:19:52.492Z,99044.00
2023-03-24T15:22:21.208Z,99034.53
2023-03-24T15:24:52.091Z,99037.09
2023-03-24T15:27:25.150Z,99042.09
2023-03-24T15:29:57.891Z,99038.09
2023-03-24T15:32:32.049Z,99036.22
2023-03-24T15:35:00.808Z,99036.50
2023-03-24T15:37:32.591Z,99034.03
2023-03-24T15:40:13.199Z,99027.63
2023-03-24T15:42:45.093Z,99031.56
2023-03-24T15:45:27.168Z,99022.97
2023-03-24T15:47:56.893Z,99017.97
2023-03-24T15:50:32.836Z,99018.97
2023-03-24T15:53:01.741Z,99016.09
2023-03-24T15:55:31.689Z,99011.34
2023-03-24T15:58:01.628Z,99015.28
2023-03-24T16:00:30.617Z,99017.41
2023-03-24T16:03:02.426Z,99008.66
2023-03-24T16:05:30.955Z,99014.81
2023-03-24T16:08:00.753Z,99014.47
2023-03-24T16:10:33.117Z,99015.78
2023-03-24T16:13:12.357Z,99017.75
2023-03-24T16:15:41.775Z,99012.28
2023-03-24T16:18:14.120Z,99020.34
2023-03-24T16:20:42.226Z,99013.78
2023-03-24T16:23:11.430Z,99020.88
2023-03-24T16:25:39.631Z,99021.75
2023-03-24T16:28:08.265Z,99021.44
2023-03-24T16:30:39.508Z,99019.09
2023-03-24T16:33:08.210Z,99016.59
2023-03-24T16:35:38.700Z,99019.19
2023-03-24T16:38:06.586Z,99024.00
2023-03-24T16:40:37.040Z,99017.88
2023-03-24T16:43:05.009Z,99017.72
2023-03-24T16:45:33.479Z,99028.81
2023-03-24T16:48:02.521Z,99010.00
2023-03-24T16:50:35.605Z,99010.69
2023-03-24T16:53:06.010Z,99016.63
2023-03-24T16:55:34.196Z,99024.09
2023-03-24T16:58:02.870Z,99030.75
2023-03-24T17:00:31.368Z,99025.06
2023-03-24T17:03:00.142Z,99029.34
2023-03-24T17:05:29.710Z,99024.13
2023-03-24T17:07:58.282Z,99037.41
2023-03-24T17:10:28.078Z,99037.78
2023-03-24T17:12:56.657Z,99019.25
2023-03-24T17:15:25.896Z,99038.88
2023-03-24T17:17:54.170Z,99034.44
2023-03-24T17:20:23.038Z,99035.84
2023-03-24T17:22:52.102Z,99047.03
2023-03-24T17:25:22.289Z,99042.44
2023-03-24T17:27:52.213Z,99064.25
2023-03-24T17:30:26.836Z,99053.38
2023-03-24T17:32:55.530Z,99054.25
2023-03-24T17:35:24.489Z,99055.38
2023-03-24T17:37:52.936Z,99060.50
2023-03-24T17:40:21.774Z,99064.19
2023-03-24T17:42:50.531Z,99063.19
2023-03-24T17:45:20.987Z,99065.03
2023-03-24T17:47:49.065Z,99061.78
2023-03-24T17:50:17.499Z,99065.41
2023-03-24T17:52:47.382Z,99070.34
2023-03-24T17:55:16.351Z,99074.25
2023-03-24T17:57:45.416Z,99078.09
2023-03-24T18:00:16.562Z,99076.03
2023-03-24T18:02:46.368Z,99075.09
2023-03-24T18:05:16.100Z,99091.03
2023-03-24T18:07:44.213Z,99087.78
2023-03-24T18:10:12.058Z,99099.72
2023-03-24T18:12:39.994Z,99099.84
2023-03-24T18:15:08.985Z,99108.91
2023-03-24T18:17:37.494Z,99103.44
2023-03-24T18:20:11.249Z,99112.75
2023-03-24T18:22:41.749Z,99100.38
2023-03-24T18:25:10.930Z,99119.47
2023-03-24T18:27:38.894Z,99126.16
2023-03-24T18:30:11.127Z,99121.09
2023-03-24T18:32:40.081Z,99120.66
2023-03-24T18:35:18.601Z,99121.47
2023-03-24T18:37:49.513Z,99118.19
2023-03-24T18:40:19.062Z,99129.84
2023-03-24T18:42:47.946Z,99131.09
2023-03-24T18:45:18.394Z,99133.94
2023-03-24T18:47:50.128Z,99146.16
2023-03-24T18:50:19.532Z,99144.09
2023-03-24T18:52:47.599Z,99155.22
2023-03-24T18:55:18.284Z,99141.25
2023-03-24T18:57:46.505Z,99134.66
2023-03-24T19:00:20.237Z,99138.63
2023-03-24T19:02:49.654Z,99130.53
2023-03-24T19:05:19.439Z,99139.16
2023-03-24T19:07:52.227Z,99129.47
2023-03-24T19:10:20.510Z,99139.06
2023-03-24T19:12:49.200Z,99139.91
2023-03-24T19:15:20.494Z,99143.34
2023-03-24T19:17:50.029Z,99150.72
2023-03-24T19:20:19.773Z,99150.88
2023-03-24T19:22:48.275Z,99143.47
2023-03-24T19:25:18.178Z,99155.53
2023-03-24T19:27:47.196Z,99154.38
2023-03-24T19:30:15.914Z,99160.69
2023-03-24T19:32:44.284Z,99174.53
2023-03-24T19:35:13.146Z,99182.63
2023-03-24T19:37:43.785Z,99181.81
2023-03-24T19:40:15.842Z,99188.75
2023-03-24T19:42:45.104Z,99168.91
2023-03-24T19:45:15.635Z,99179.91
2023-03-24T19:47:48.209Z,99189.78
2023-03-24T19:50:17.929Z,99189.94
2023-03-24T19:52:50.837Z,99193.78
2023-03-24T19:55:19.990Z,99192.03
2023-03-24T19:57:48.388Z,99187.13
2023-03-24T20:00:19.345Z,99186.50
2023-03-24T20:02:47.709Z,99185.50
2023-03-24T20:05:19.867Z,99174.56
2023-03-24T20:07:49.465Z,99169.78
2023-03-24T20:10:17.972Z,99173.75
2023-03-24T20:12:46.630Z,99173.84
2023-03-24T20:15:14.760Z,99171.66
2023-03-24T20:17:43.262Z,99168.06
2023-03-24T20:20:12.700Z,99165.59
2023-03-24T20:22:42.500Z,99164.91
2023-03-24T20:25:13.155Z,99162.50
2023-03-24T20:27:41.911Z,99161.78
2023-03-24T20:30:11.024Z,99155.53
2023-03-24T20:32:39.822Z,99165.56
2023-03-24T20:35:09.233Z,99158.28
2023-03-24T20:37:38.773Z,99157.59
2023-03-24T20:40:09.749Z,99153.59
2023-03-24T20:42:40.269Z,99153.47
2023-03-24T20:45:09.020Z,99148.84
2023-03-24T20:47:38.226Z,99151.22
2023-03-24T20:50:08.083Z,99162.50
2023-03-24T20:52:37.024Z,99166.16
2023-03-24T20:55:07.213Z,99162.41
2023-03-24T20:57:36.450Z,99161.25
2023-03-24T21:00:14.046Z,99159.47
2023-03-24T21:02:43.837Z,99160.50
2023-03-24T21:05:12.379Z,99157.41
2023-03-24T21:07:44.023Z,99158.25
2023-03-24T21:10:12.434Z,99160.16
2023-03-24T21:12:53.126Z,99162.34
2023-03-24T21:15:25.601Z,99160.81
2023-03-24T21:17:53.993Z,99159.63
2023-03-24T21:20:22.717Z,99165.84
2023-03-24T21:22:55.679Z,99170.53
2023-03-24T21:25:29.019Z,99175.06
2023-03-24T21:28:00.363Z,99173.72
2023-03-24T21:30:31.119Z,99184.41
2023-03-24T21:33:01.215Z,99173.88
2023-03-24T21:35:30.368Z,99175.81
2023-03-24T21:37:59.103Z,99176.81
2023-03-24T21:40:30.444Z,99163.06
2023-03-24T21:43:05.248Z,99165.72
2023-03-24T21:45:37.336Z,99161.66
2023-03-24T21:48:08.621Z,99168.19
2023-03-24T21:50:39.178Z,99170.91
2023-03-24T21:53:15.368Z,99174.72
2023-03-24T21:55:49.873Z,99183.06
2023-03-24T21:58:18.464Z,99182.63
2023-03-24T22:00:48.737Z,99194.84
2023-03-24T22:03:17.589Z,99192.81
2023-03-24T22:05:45.817Z,99199.66
2023-03-24T22:08:22.816Z,99202.31
2023-03-24T22:10:54.536Z,99210.19
2023-03-24T22:13:22.625Z,99227.84
2023-03-24T22:15:56.213Z,99227.19
2023-03-24T22:18:25.113Z,99227.81
2023-03-24T22:20:54.157Z,99229.72
2023-03-24T22:23:22.940Z,99223.59
2023-03-24T22:25:52.875Z,99218.75
2023-03-24T22:28:22.108Z,99216.50
2023-03-24T22:30:50.379Z,99213.81
2023-03-24T22:33:20.464Z,99222.53
2023-03-24T22:35:49.246Z,99209.44
2023-03-24T22:38:18.312Z,99221.00
2023-03-24T22:40:46.747Z,99221.00
2023-03-24T22:43:17.327Z,99227.81
2023-03-24T22:45:45.877Z,99221.50
2023-03-24T22:48:14.625Z,99230.34
2023-03-24T22:50:44.102Z,99234.56
2023-03-24T22:53:12.694Z,99227.69
2023-03-24T22:55:42.406Z,99220.88
2023-03-24T22:58:11.572Z,99221.66
2023-03-24T23:00:40.960Z,99225.19
2023-03-24T23:03:09.098Z,99220.56
2023-03-24T23:05:40.603Z,99213.44
2023-03-24T23:08:10.315Z,99211.78
2023-03-24T23:10:42.510Z,99200.66
2023-03-24T23:13:10.824Z,99189.75
2023-03-24T23:15:39.529Z,99194.69
2023-03-24T23:18:09.109Z,99188.22
2023-03-24T23:20:37.641Z,99193.63
2023-03-24T23:23:06.987Z,99180.81
2023-03-24T23:25:40.897Z,99182.78
2023-03-24T23:28:09.728Z,99199.84
2023-03-24T23:30:38.722Z,99212.28
2023-03-24T23:33:06.989Z,99225.09
2023-03-24T23:35:37.787Z,99206.22
2023-03-24T23:38:06.906Z,99189.25
2023-03-24T23:40:36.821Z,99185.69
2023-03-24T23:43:04.927Z,99175.06
2023-03-24T23:45:33.094Z,99173.91
2023-03-24T23:48:01.690Z,99166.34
2023-03-24T23:50:32.484Z,99177.53
2023-03-24T23:53:01.497Z,99187.03
2023-03-24T23:55:29.595Z,99184.25
2023-03-24T23:57:59.108Z,99192.91
